Time;durP1;ratioP1;P1;durP2;ratioP2;P2;SDS_P1;SDS_P2;PMS_P1;PMS_P2;Temp;Humidity;BMP_temperature;BMP_pressure;BME280_temperature;BME280_humidity;BME280_pressure;Samples;Min_cycle;Max_cycle;Signal;HPM_P1;HPM_P2
2023/01/05 00:01:16;;;;;;;1.85;0.70;;;;;;;9.03;91.13;99805.71;1605842;87;21701;-75
2023/01/05 00:03:44;;;;;;;1.33;0.50;;;;;;;8.97;91.77;99778.98;1600173;88;21080;-75
2023/01/05 00:06:16;;;;;;;1.50;0.60;;;;;;;8.92;91.78;99790.91;1599565;89;21152;-74
2023/01/05 00:08:44;;;;;;;2.00;0.60;;;;;;;8.89;92.27;99790.58;1598646;89;21032;-74
2023/01/05 00:22:29;;;;;;;1.17;0.60;;;;;;;8.77;94.21;99768.02;1599110;89;21099;-75
2023/01/05 00:25:13;;;;;;;0.53;0.50;;;;;;;8.77;94.68;99772.79;1600034;89;21153;-76
2023/01/05 00:27:42;;;;;;;1.37;0.57;;;;;;;8.78;95.16;99764.02;1598560;89;22215;-75
2023/01/05 00:30:12;;;;;;;1.37;0.50;;;;;;;8.75;95.32;99747.17;1598542;89;21122;-75
2023/01/05 00:32:41;;;;;;;;;;;;;;;8.76;95.65;99754.11;1598089;88;22156;-74
2023/01/05 00:35:10;;;;;;;1.30;0.70;;;;;;;8.76;96.12;99750.63;1581417;89;20338;-75
2023/01/05 00:37:38;;;;;;;1.73;0.67;;;;;;;8.75;96.00;99748.47;1563284;90;21150;-74
2023/01/05 00:40:10;;;;;;;0.83;0.80;;;;;;;8.77;96.70;99762.34;1572479;90;21911;-75
2023/01/05 00:42:38;;;;;;;1.17;0.80;;;;;;;8.81;97.07;99740.41;1552541;90;21155;-75
2023/01/05 00:45:08;;;;;;;0.63;0.50;;;;;;;8.83;96.96;99744.25;1551302;90;21989;-74
2023/01/05 00:47:36;;;;;;;0.70;0.50;;;;;;;8.86;97.12;99748.89;1572598;90;21434;-74
2023/01/05 00:50:06;;;;;;;1.70;0.60;;;;;;;8.87;97.02;99739.31;1554134;90;21155;-75
2023/01/05 00:52:35;;;;;;;0.77;0.50;;;;;;;8.89;96.88;99736.16;1606688;87;21153;-74
2023/01/05 00:55:03;;;;;;;1.40;0.50;;;;;;;8.89;96.79;99737.47;1596441;89;21137;-74
2023/01/05 00:57:31;;;;;;;1.20;0.40;;;;;;;8.91;96.97;99735.19;1613861;88;21107;-75
2023/01/05 01:00:00;;;;;;;0.60;0.40;;;;;;;8.94;97.09;99748.13;1598367;87;21155;-75
2023/01/05 01:02:28;;;;;;;2.15;0.50;;;;;;;9.01;97.85;99736.98;1586725;89;21139;-75
2023/01/05 01:04:56;;;;;;;0.90;0.40;;;;;;;9.07;97.94;99732.80;1563983;89;21036;-75
2023/01/05 01:07:24;;;;;;;1.40;0.60;;;;;;;9.11;97.69;99730.44;1574757;89;21591;-75
2023/01/05 01:09:52;;;;;;;1.67;0.60;;;;;;;9.15;97.70;99722.88;1574133;89;21129;-75
2023/01/05 01:12:20;;;;;;;1.93;0.70;;;;;;;9.16;97.49;99721.95;1582101;86;21772;-75
2023/01/05 01:14:48;;;;;;;2.13;0.50;;;;;;;9.19;97.56;99720.97;1578066;89;21098;-75
2023/01/05 01:17:17;;;;;;;1.20;0.60;;;;;;;9.21;97.45;99729.61;1596298;88;21117;-75
2023/01/05 01:19:45;;;;;;;1.80;0.50;;;;;;;9.21;97.21;99740.07;1596637;87;21090;-75
2023/01/05 01:22:14;;;;;;;0.93;0.43;;;;;;;9.21;97.00;99743.99;1617202;87;21245;-75
2023/01/05 01:24:41;;;;;;;2.63;0.60;;;;;;;9.22;97.09;99737.84;1598399;89;21177;-75
2023/01/05 01:27:09;;;;;;;0.97;0.30;;;;;;;9.21;96.83;99746.61;1597988;88;21081;-75
2023/01/05 01:29:39;;;;;;;1.33;0.50;;;;;;;9.20;96.84;99757.11;1609238;87;21114;-75
2023/01/05 01:32:07;;;;;;;1.55;0.53;;;;;;;9.22;97.42;99741.76;1590841;89;21686;-75
2023/01/05 01:34:34;;;;;;;3.37;0.40;;;;;;;9.26;97.26;99750.34;1613577;85;21528;-75
2023/01/05 01:37:02;;;;;;;1.43;0.60;;;;;;;9.26;97.06;99745.96;1605026;87;21039;-75
2023/01/05 01:39:31;;;;;;;1.90;0.50;;;;;;;9.28;97.10;99752.42;1596227;89;21081;-75
2023/01/05 01:42:00;;;;;;;1.73;0.50;;;;;;;9.27;96.87;99771.19;1602460;87;21095;-78
2023/01/05 01:45:06;;;;;;;2.87;0.57;;;;;;;9.22;96.77;99771.83;1590531;88;21086;-78
2023/01/05 01:48:04;;;;;;;5.60;0.50;;;;;;;9.14;96.65;99766.94;1582630;88;21163;-80
2023/01/05 01:50:40;;;;;;;2.40;0.70;;;;;;;9.06;96.87;99772.06;1596354;88;21568;-79
2023/01/05 01:53:12;;;;;;;3.83;0.60;;;;;;;8.98;96.84;99784.16;1596357;89;21109;-78
2023/01/05 01:55:43;;;;;;;5.07;0.80;;;;;;;8.91;97.00;99774.85;1606954;87;21131;-79
2023/01/05 01:58:16;;;;;;;2.00;0.45;;;;;;;8.85;97.14;99782.48;1586181;89;21078;-77
2023/01/05 02:00:46;;;;;;;3.60;0.67;;;;;;;8.78;96.89;99778.86;1596644;89;21917;-77
2023/01/05 02:03:14;;;;;;;3.17;0.87;;;;;;;8.70;97.37;99776.54;1596402;87;21085;-78
2023/01/05 02:05:41;;;;;;;3.97;0.77;;;;;;;8.66;97.58;99778.44;1626349;87;21166;-80
2023/01/05 02:08:15;;;;;;;2.83;0.70;;;;;;;8.62;97.68;99810.83;1573866;87;21157;-78
2023/01/05 02:10:50;;;;;;;1.97;0.50;;;;;;;8.58;97.72;99787.02;1525252;92;21131;-77
2023/01/05 02:13:58;;;;;;;1.10;0.30;;;;;;;8.54;98.11;99791.14;1631831;83;21282;-76
2023/01/05 02:16:56;;;;;;;1.03;0.23;;;;;;;8.37;97.48;99765.17;1738859;81;21009;-77
2023/01/05 02:19:54;;;;;;;0.40;0.20;;;;;;;8.14;97.11;99756.87;1739871;82;21080;-78
2023/01/05 02:22:58;;;;;;;0.87;0.10;;;;;;;7.93;97.19;99766.38;1739835;82;21069;-76
2023/01/05 02:26:08;;;;;;;0.43;0.17;;;;;;;7.79;97.38;99756.89;1739769;82;21040;-76
2023/01/05 02:29:23;;;;;;;2.03;0.20;;;;;;;7.71;97.52;99770.20;1739446;81;21281;-75
2023/01/05 02:32:06;;;;;;;0.83;0.20;;;;;;;7.64;97.80;99770.00;1739858;82;21022;-77
2023/01/05 02:34:47;;;;;;;1.50;0.23;;;;;;;7.61;98.01;99767.50;1743392;80;21036;-76
2023/01/05 02:37:36;;;;;;;2.13;0.27;;;;;;;7.60;98.11;99764.51;1708230;82;21051;-76
2023/01/05 02:40:14;;;;;;;1.90;0.40;;;;;;;7.62;98.49;99760.52;1707377;82;21043;-77
2023/01/05 02:42:45;;;;;;;1.50;0.30;;;;;;;7.65;98.83;99752.59;1742899;81;21203;-76
2023/01/05 02:45:16;;;;;;;1.67;0.30;;;;;;;7.70;99.11;99748.06;1715046;81;21047;-77
2023/01/05 02:47:44;;;;;;;;;;;;;;;7.78;99.47;99762.53;1743775;82;21609;-76
2023/01/05 02:50:25;;;;;;;1.57;0.40;;;;;;;7.88;99.65;99753.09;1726345;82;20430;-76
2023/01/05 02:53:04;;;;;;;2.00;0.30;;;;;;;7.92;99.63;99758.58;1737713;82;21492;-77
2023/01/05 02:55:40;;;;;;;3.63;0.60;;;;;;;7.99;99.76;99757.47;1739408;82;21141;-76
2023/01/05 02:58:35;;;;;;;4.23;0.67;;;;;;;8.07;99.88;99758.50;1706796;82;21032;-78
2023/01/05 03:01:17;;;;;;;1.63;0.40;;;;;;;8.14;100.00;99752.97;1671548;83;21111;-76
2023/01/05 03:04:02;;;;;;;4.07;0.80;;;;;;;8.22;100.00;99763.97;1695927;84;20965;-78
2023/01/05 03:06:47;;;;;;;6.27;0.60;;;;;;;8.27;100.00;99759.44;1693681;84;21045;-78
2023/01/05 03:09:24;;;;;;;2.93;0.70;;;;;;;8.32;100.00;99765.80;1649798;84;21550;-78
2023/01/05 03:15:06;;;;;;;2.20;0.47;;;;;;;8.37;100.00;99753.42;1680192;85;21043;-83
2023/01/05 03:17:52;;;;;;;1.55;0.40;;;;;;;8.34;100.00;99732.66;1694401;83;21088;-76
2023/01/05 03:20:24;;;;;;;1.70;0.43;;;;;;;8.31;100.00;99740.58;1677818;85;21591;-77
2023/01/05 03:37:57;;;;;;;3.57;0.60;;;;;;;8.07;100.00;99746.75;1678029;85;21201;-77
2023/01/05 03:40:29;;;;;;;1.70;0.43;;;;;;;8.07;100.00;99756.73;1653384;84;21572;-76
2023/01/05 03:43:03;;;;;;;1.40;0.50;;;;;;;8.10;100.00;99751.85;1706591;83;21059;-76
2023/01/05 03:45:44;;;;;;;2.27;0.50;;;;;;;8.10;100.00;99755.77;1678025;85;22050;-83
2023/01/05 03:48:13;;;;;;;1.73;0.57;;;;;;;8.12;100.00;99762.64;1696351;84;21060;-75
2023/01/05 03:50:42;;;;;;;4.00;0.40;;;;;;;8.14;100.00;99762.56;1670349;84;21982;-76
2023/01/05 03:53:12;;;;;;;3.17;0.63;;;;;;;8.14;100.00;99755.58;1705978;83;21041;-85
2023/01/05 03:55:40;;;;;;;0.93;0.30;;;;;;;8.15;100.00;99760.37;1678105;85;21087;-76
2023/01/05 03:58:09;;;;;;;1.70;0.47;;;;;;;8.14;100.00;99761.25;1687717;83;21504;-77
2023/01/05 04:00:37;;;;;;;1.73;0.30;;;;;;;8.15;100.00;99760.37;1741350;81;21028;-76
2023/01/05 04:03:09;;;;;;;1.80;0.43;;;;;;;8.14;99.99;99758.64;1742668;82;21472;-77
2023/01/05 04:05:37;;;;;;;3.43;0.40;;;;;;;8.12;99.96;99761.33;1742396;82;21023;-82
2023/01/05 04:08:05;;;;;;;2.00;0.50;;;;;;;8.09;99.97;99755.34;1742703;82;21608;-77
2023/01/05 04:10:35;;;;;;;2.05;0.40;;;;;;;8.08;99.92;99750.59;1742726;81;21038;-78
2023/01/05 04:13:02;;;;;;;2.17;0.60;;;;;;;8.07;99.95;99746.75;1713028;82;21071;-77
2023/01/05 04:15:33;;;;;;;1.60;0.30;;;;;;;8.08;100.00;99740.61;1712668;82;21387;-77
2023/01/05 04:18:01;;;;;;;1.17;0.30;;;;;;;8.06;100.00;99751.09;1697419;82;21506;-76
2023/01/05 04:20:28;;;;;;;2.20;0.30;;;;;;;8.09;100.00;99738.38;1737569;81;21356;-76
2023/01/05 04:22:55;;;;;;;2.03;0.30;;;;;;;8.11;100.00;99733.50;1738071;81;21029;-86
2023/01/05 04:25:22;;;;;;;4.57;0.60;;;;;;;8.15;100.00;99725.13;1737768;82;21072;-76
2023/01/05 04:27:50;;;;;;;2.43;0.50;;;;;;;8.18;100.00;99731.53;1743027;81;21106;-77
2023/01/05 04:30:18;;;;;;;2.37;0.57;;;;;;;8.22;100.00;99730.03;1742809;82;21028;-76
2023/01/05 04:32:45;;;;;;;4.67;0.90;;;;;;;8.24;100.00;99729.53;1743220;81;21059;-77
2023/01/05 04:35:15;;;;;;;6.30;0.80;;;;;;;8.27;100.00;99722.88;1743009;81;21478;-77
2023/01/05 04:37:43;;;;;;;6.60;1.43;;;;;;;8.30;100.00;99729.75;1730144;81;21035;-78
2023/01/05 04:40:11;;;;;;;5.13;0.90;;;;;;;8.34;100.00;99740.48;1742500;82;21828;-77
2023/01/05 04:42:41;;;;;;;5.03;0.78;;;;;;;8.38;100.00;99728.16;1742356;81;21025;-77
2023/01/05 04:45:09;;;;;;;4.53;1.07;;;;;;;8.40;100.00;99731.59;1742843;81;20968;-79
2023/01/05 04:47:38;;;;;;;5.27;0.80;;;;;;;8.41;100.00;99721.08;1743142;82;20997;-77
2023/01/05 04:50:08;;;;;;;2.30;0.80;;;;;;;8.41;100.00;99728.91;1742882;82;21028;-77
2023/01/05 04:52:35;;;;;;;6.42;1.37;;;;;;;8.42;100.00;99748.03;1743122;82;21768;-76
2023/01/05 04:55:04;;;;;;;3.80;0.80;;;;;;;8.44;100.00;99748.83;1742872;81;21055;-77
2023/01/05 04:57:33;;;;;;;5.73;1.07;;;;;;;8.47;100.00;99741.72;1743193;81;21025;-77
2023/01/05 05:00:00;;;;;;;3.60;0.70;;;;;;;8.47;100.00;99741.72;1743009;81;21564;-78
2023/01/05 05:02:28;;;;;;;4.03;1.00;;;;;;;8.49;100.00;99742.98;1743040;82;21033;-77
2023/01/05 05:04:55;;;;;;;6.27;1.10;;;;;;;8.48;99.92;99733.45;1742978;81;21598;-77
2023/01/05 05:07:22;;;;;;;3.20;0.77;;;;;;;8.50;99.95;99742.06;1743156;82;21009;-78
2023/01/05 05:09:50;;;;;;;6.17;0.90;;;;;;;8.51;99.81;99736.38;1743006;82;21016;-82
2023/01/05 05:12:19;;;;;;;4.97;0.93;;;;;;;8.52;99.73;99736.79;1743208;82;21088;-78
2023/01/05 05:14:48;;;;;;;3.60;1.07;;;;;;;8.52;99.62;99737.64;1742999;81;21024;-78
2023/01/05 05:17:17;;;;;;;4.23;0.77;;;;;;;8.52;99.54;99736.79;1738841;81;21082;-77
2023/01/05 05:19:44;;;;;;;4.97;0.70;;;;;;;8.52;99.47;99731.56;1736836;82;21013;-83
2023/01/05 05:22:13;;;;;;;3.27;0.80;;;;;;;8.53;99.45;99743.70;1739935;82;21493;-77
2023/01/05 05:24:40;;;;;;;4.00;0.73;;;;;;;8.54;99.41;99738.44;1739699;82;21032;-79
2023/01/05 05:27:08;;;;;;;5.87;1.00;;;;;;;8.53;99.27;99769.83;1740012;82;21028;-77
2023/01/05 05:29:35;;;;;;;4.23;0.80;;;;;;;8.54;99.16;99722.77;1703015;82;21016;-79
2023/01/05 05:32:04;;;;;;;4.87;0.93;;;;;;;8.51;98.92;99728.11;1739702;82;21440;-78
2023/01/05 05:34:31;;;;;;;3.20;1.07;;;;;;;8.49;98.88;99737.30;1724399;82;21450;-83
2023/01/05 05:36:58;;;;;;;3.13;0.70;;;;;;;8.47;98.96;99749.56;1739420;82;21028;-84
2023/01/05 05:39:25;;;;;;;4.37;0.80;;;;;;;8.49;98.81;99741.67;1739707;82;21032;-86
2023/01/05 05:41:52;;;;;;;3.37;0.70;;;;;;;8.50;98.70;99739.45;1739788;82;21109;-82
2023/01/05 05:44:19;;;;;;;5.20;0.90;;;;;;;8.50;98.55;99749.90;1739276;82;21076;-79
2023/01/05 05:46:47;;;;;;;3.07;1.13;;;;;;;8.48;98.46;99755.20;1739763;82;21036;-80
2023/01/05 05:49:14;;;;;;;4.87;0.93;;;;;;;8.47;98.49;99739.11;1733647;82;22066;-77
2023/01/05 05:51:41;;;;;;;5.53;1.03;;;;;;;8.46;98.39;99749.64;1740074;82;20985;-78
2023/01/05 05:54:09;;;;;;;4.47;0.90;;;;;;;8.43;98.33;99749.30;1739729;82;21332;-78
2023/01/05 05:56:37;;;;;;;3.87;1.00;;;;;;;8.42;98.33;99761.09;1739918;82;21021;-78
2023/01/05 05:59:04;;;;;;;2.37;0.60;;;;;;;8.40;98.39;99775.53;1739734;82;21024;-78
2023/01/05 06:01:32;;;;;;;6.27;1.07;;;;;;;8.42;98.57;99759.78;1740096;82;21072;-78
2023/01/05 06:03:59;;;;;;;3.90;1.17;;;;;;;8.41;98.55;99767.23;1722102;82;21544;-78
2023/01/05 06:06:26;;;;;;;3.67;0.90;;;;;;;8.40;98.61;99763.78;1739670;82;21378;-78
2023/01/05 06:08:54;;;;;;;2.70;0.70;;;;;;;8.40;98.66;99774.69;1718214;82;21524;-79
2023/01/05 06:11:21;;;;;;;2.87;0.70;;;;;;;8.39;98.71;99768.59;1739380;82;21032;-84
2023/01/05 06:13:49;;;;;;;3.93;1.03;;;;;;;8.41;98.64;99775.07;1726782;82;21016;-78
2023/01/05 06:16:16;;;;;;;3.90;0.77;;;;;;;8.39;98.65;99768.59;1702403;82;21376;-79
2023/01/05 06:18:44;;;;;;;5.70;1.00;;;;;;;8.38;98.69;99760.34;1728466;81;21202;-79
2023/01/05 06:21:12;;;;;;;2.80;0.80;;;;;;;8.41;98.71;99762.02;1719711;82;21498;-89
2023/01/05 06:23:39;;;;;;;3.47;0.70;;;;;;;8.43;98.64;99771.95;1734490;82;21477;-78
2023/01/05 06:26:15;;;;;;;4.40;1.00;;;;;;;8.43;98.65;99778.02;1734879;81;21103;-78
2023/01/05 06:28:42;;;;;;;6.33;1.93;;;;;;;8.44;98.59;99765.35;1735249;81;21020;-79
2023/01/05 06:31:09;;;;;;;5.07;1.00;;;;;;;8.46;98.51;99774.45;1719496;82;21545;-78
2023/01/05 06:33:37;;;;;;;4.07;0.90;;;;;;;8.48;98.51;99770.02;1734983;82;21068;-78
2023/01/05 06:36:06;;;;;;;3.67;0.90;;;;;;;8.47;98.33;99769.14;1734874;81;21508;-79
2023/01/05 06:38:34;;;;;;;6.53;1.30;;;;;;;8.47;98.32;99769.14;1734976;82;21048;-78
2023/01/05 06:41:02;;;;;;;5.30;1.80;;;;;;;8.49;98.29;99767.33;1709768;81;21048;-85
2023/01/05 06:43:29;;;;;;;6.23;2.57;;;;;;;8.51;98.21;99772.94;1727993;82;21855;-79
2023/01/05 06:45:57;;;;;;;7.43;2.03;;;;;;;8.51;98.20;99769.91;1735313;81;21028;-78
2023/01/05 06:48:25;;;;;;;9.00;3.30;;;;;;;8.54;98.12;99772.85;1734924;82;21017;-79
2023/01/05 06:50:52;;;;;;;5.73;1.23;;;;;;;8.55;98.12;99770.63;1702408;81;21025;-78
2023/01/05 06:53:19;;;;;;;7.07;1.90;;;;;;;8.56;98.01;99776.23;1735082;82;21091;-78
2023/01/05 06:55:47;;;;;;;4.63;1.73;;;;;;;8.59;98.12;99773.07;1735411;82;21704;-88
2023/01/05 06:58:14;;;;;;;7.70;2.27;;;;;;;8.62;98.20;99776.86;1734923;81;21052;-78
2023/01/05 07:00:41;;;;;;;10.03;2.77;;;;;;;8.67;98.29;99787.11;1714252;82;21609;-78
2023/01/05 07:03:12;;;;;;;10.43;2.33;;;;;;;8.69;98.27;99775.70;1734827;82;21037;-78
2023/01/05 07:05:40;;;;;;;7.03;2.40;;;;;;;8.74;98.30;99781.21;1735547;81;21068;-78
2023/01/05 07:08:07;;;;;;;6.03;1.50;;;;;;;8.78;98.35;99795.84;1735183;81;21150;-80
2023/01/05 07:10:35;;;;;;;10.13;2.67;;;;;;;8.83;98.27;99779.53;1735427;82;21471;-78
2023/01/05 07:13:02;;;;;;;7.27;2.50;;;;;;;8.84;98.18;99776.88;1730326;81;21580;-78
2023/01/05 07:15:29;;;;;;;5.83;1.73;;;;;;;8.84;98.08;99787.33;1698399;82;21041;-78
2023/01/05 07:17:56;;;;;;;7.30;2.10;;;;;;;8.85;98.08;99784.25;1738962;82;21355;-79
2023/01/05 07:20:23;;;;;;;6.93;2.10;;;;;;;8.85;98.06;99799.93;1742950;82;21242;-77
2023/01/05 07:22:51;;;;;;;6.93;1.97;;;;;;;8.84;98.03;99794.29;1732392;81;21655;-78
2023/01/05 07:25:18;;;;;;;7.17;2.53;;;;;;;8.83;97.96;99799.98;1733505;82;21118;-78
2023/01/05 07:27:55;;;;;;;8.00;2.60;;;;;;;8.82;97.94;99802.20;1713819;82;21384;-78
2023/01/05 07:30:19;;;;;;;3.07;1.10;;;;;;;8.82;97.87;99804.82;1741292;82;21032;-78
2023/01/05 07:32:46;;;;;;;6.33;1.70;;;;;;;8.83;97.94;99807.81;1729488;82;21985;-78
2023/01/05 07:35:14;;;;;;;5.23;1.80;;;;;;;8.83;97.89;99816.96;1743305;82;21513;-78
2023/01/05 07:37:43;;;;;;;6.03;2.33;;;;;;;8.84;97.84;99812.16;1736917;82;21502;-78
2023/01/05 07:40:11;;;;;;;6.03;1.70;;;;;;;8.85;97.91;99800.78;1743002;82;21059;-78
2023/01/05 07:42:38;;;;;;;6.33;2.70;;;;;;;8.86;97.90;99805.54;1743362;82;21501;-77
2023/01/05 07:45:09;;;;;;;6.20;1.80;;;;;;;8.88;97.84;99804.57;1742962;81;21146;-78
2023/01/05 07:47:38;;;;;;;7.17;2.00;;;;;;;8.88;97.75;99797.19;1713918;82;20955;-78
2023/01/05 07:50:06;;;;;;;5.55;2.00;;;;;;;8.87;97.77;99817.25;1742671;82;20944;-78
2023/01/05 07:52:34;;;;;;;6.27;1.80;;;;;;;8.90;97.66;99813.67;1742030;82;21746;-78
2023/01/05 07:55:01;;;;;;;6.17;1.90;;;;;;;8.93;97.68;99821.39;1731237;82;21039;-81
2023/01/05 07:57:28;;;;;;;8.17;2.03;;;;;;;8.96;97.60;99807.35;1743347;82;21091;-78
2023/01/05 07:59:56;;;;;;;5.07;1.73;;;;;;;8.99;97.46;99817.68;1719208;81;21496;-79
2023/01/05 08:02:23;;;;;;;5.17;1.80;;;;;;;9.00;97.38;99815.45;1742718;82;21624;-79
2023/01/05 08:04:50;;;;;;;9.70;1.97;;;;;;;8.97;97.34;99805.97;1743380;82;21017;-78
2023/01/05 08:07:17;;;;;;;5.87;1.50;;;;;;;8.97;97.31;99815.11;1742950;82;21044;-78
2023/01/05 08:12:30;;;;;;;8.07;1.80;;;;;;;8.98;97.31;99814.65;1719552;82;21068;-82
2023/01/05 08:14:57;;;;;;;9.17;1.90;;;;;;;8.99;97.26;99828.13;1743033;82;21024;-75
2023/01/05 08:17:24;;;;;;;6.20;1.67;;;;;;;9.02;97.23;99811.02;1741873;81;21585;-77
2023/01/05 08:19:51;;;;;;;6.00;1.60;;;;;;;9.05;97.08;99822.20;1698249;82;21064;-75
2023/01/05 08:22:18;;;;;;;4.37;1.70;;;;;;;9.07;97.04;99824.77;1710349;82;21149;-77
2023/01/05 08:24:46;;;;;;;5.33;1.13;;;;;;;9.09;96.97;99821.17;1738662;82;21036;-77
2023/01/05 08:27:13;;;;;;;5.67;1.60;;;;;;;9.10;96.86;99821.56;1702986;82;21028;-77
2023/01/05 08:29:40;;;;;;;7.57;1.80;;;;;;;9.15;96.69;99844.92;1739634;82;21123;-82
2023/01/05 08:32:07;;;;;;;5.20;1.10;;;;;;;9.18;96.58;99831.72;1740004;82;21021;-75
2023/01/05 08:34:34;;;;;;;5.33;1.30;;;;;;;9.21;96.62;99835.97;1739853;82;21485;-78
2023/01/05 08:37:01;;;;;;;4.57;1.37;;;;;;;9.23;96.47;99845.89;1740007;82;21531;-77
2023/01/05 08:39:29;;;;;;;4.87;1.30;;;;;;;9.23;96.43;99841.54;1739959;82;21309;-78
2023/01/05 08:41:55;;;;;;;7.73;1.67;;;;;;;9.22;96.26;99843.73;1740123;82;21032;-77
2023/01/05 08:44:23;;;;;;;6.60;1.80;;;;;;;9.21;96.24;99846.44;1739869;82;21036;-77
2023/01/05 08:46:50;;;;;;;6.47;2.03;;;;;;;9.16;96.13;99859.22;1739799;82;21945;-78
2023/01/05 08:49:17;;;;;;;5.57;1.47;;;;;;;9.14;96.17;99857.58;1739572;82;21406;-78
2023/01/05 08:51:44;;;;;;;4.97;1.30;;;;;;;9.11;96.21;99865.08;1739805;82;22049;-77
2023/01/05 08:54:11;;;;;;;5.27;1.30;;;;;;;9.07;96.13;99883.12;1739782;82;21021;-77
2023/01/05 08:56:42;;;;;;;4.03;1.20;;;;;;;9.03;96.26;99878.06;1739702;82;21100;-78
2023/01/05 08:59:13;;;;;;;5.50;1.10;;;;;;;9.00;96.33;99869.88;1739748;82;21151;-77
2023/01/05 09:01:40;;;;;;;4.40;1.00;;;;;;;8.98;96.34;99889.14;1739643;82;21072;-78
2023/01/05 09:04:08;;;;;;;7.93;1.27;;;;;;;8.92;96.38;99892.42;1739858;82;21047;-78
2023/01/05 09:06:35;;;;;;;4.97;1.00;;;;;;;8.90;96.59;99895.54;1739636;82;21028;-80
2023/01/05 09:09:03;;;;;;;4.10;0.97;;;;;;;8.90;96.62;99894.23;1739780;82;21020;-79
2023/01/05 09:11:31;;;;;;;3.90;1.00;;;;;;;8.88;96.73;99891.28;1739905;82;21332;-78
2023/01/05 09:14:01;;;;;;;4.47;0.90;;;;;;;8.86;96.78;99900.92;1739593;82;21064;-84
2023/01/05 09:16:32;;;;;;;3.67;0.90;;;;;;;8.88;96.82;99904.34;1739716;82;21111;-85
2023/01/05 09:19:02;;;;;;;3.93;0.90;;;;;;;8.88;96.82;99903.03;1723859;82;21477;-78
2023/01/05 09:21:29;;;;;;;3.70;0.80;;;;;;;8.90;96.86;99912.98;1744829;82;21012;-77
2023/01/05 09:23:56;;;;;;;5.30;1.40;;;;;;;8.98;96.85;99916.16;1744910;82;21149;-78
2023/01/05 09:26:23;;;;;;;4.27;0.97;;;;;;;9.00;96.81;99922.63;1744660;82;21087;-76
2023/01/05 09:28:50;;;;;;;3.50;0.87;;;;;;;8.98;96.73;99910.94;1745084;82;21269;-77
2023/01/05 09:31:20;;;;;;;3.70;1.10;;;;;;;8.98;96.60;99918.78;1744782;82;20969;-77
2023/01/05 09:33:48;;;;;;;3.72;1.10;;;;;;;8.98;96.42;99916.59;1745140;82;20985;-77
2023/01/05 09:36:17;;;;;;;4.30;1.10;;;;;;;9.01;96.32;99924.34;1718566;82;21157;-77
2023/01/05 09:38:52;;;;;;;2.77;1.00;;;;;;;9.04;96.37;99923.77;1744754;82;22324;-81
2023/01/05 09:41:28;;;;;;;3.80;1.13;;;;;;;9.03;96.17;99927.27;1736921;82;21581;-77
2023/01/05 09:44:00;;;;;;;2.03;0.50;;;;;;;9.00;95.89;99910.86;1713619;80;21075;-78
2023/01/05 09:46:35;;;;;;;2.03;0.40;;;;;;;8.93;94.98;99906.33;1728076;82;21460;-86
2023/01/05 09:49:06;;;;;;;3.30;0.60;;;;;;;8.88;93.29;99916.11;1738586;82;21134;-76
2023/01/05 09:51:35;;;;;;;1.70;0.60;;;;;;;8.82;92.70;99926.34;1723138;82;21472;-77
2023/01/05 09:54:02;;;;;;;2.30;0.30;;;;;;;8.78;92.19;99931.27;1726389;82;21894;-91
2023/01/05 09:56:38;;;;;;;1.43;0.50;;;;;;;8.74;92.03;99951.05;1728503;82;21586;-77
2023/01/05 09:59:16;;;;;;;0.80;0.27;;;;;;;8.70;91.69;99955.08;1740076;82;21020;-91
2023/01/05 10:01:47;;;;;;;0.43;0.20;;;;;;;8.64;91.48;99950.52;1707962;82;21236;-79
2023/01/05 10:04:20;;;;;;;0.88;0.30;;;;;;;8.50;90.78;99948.40;1742560;82;27522;-83
2023/01/05 10:06:53;;;;;;;0.60;0.40;;;;;;;8.23;90.46;99939.31;1736062;82;21532;-76
2023/01/05 10:09:34;;;;;;;0.50;0.10;;;;;;;7.98;90.39;99913.20;1719314;82;21020;-77
2023/01/05 10:15:17;;;;;;;0.87;0.40;;;;;;;7.59;90.06;99938.41;1736200;82;21127;-86
2023/01/05 10:17:45;;;;;;;0.30;0.20;;;;;;;7.48;90.54;99941.81;1744858;80;21520;-75
2023/01/05 10:20:18;;;;;;;0.50;0.30;;;;;;;7.41;90.48;99935.52;1744824;82;21044;-77
2023/01/05 10:23:21;;;;;;;0.20;0.10;;;;;;;7.37;90.81;99929.53;1745124;82;21036;-89
2023/01/05 10:26:03;;;;;;;0.80;0.20;;;;;;;7.33;90.80;99943.13;1727070;82;22053;-81
2023/01/05 10:28:50;;;;;;;0.80;0.20;;;;;;;7.29;91.11;99938.92;1710687;82;21549;-79
2023/01/05 10:31:46;;;;;;;0.20;0.20;;;;;;;7.31;91.21;99931.87;1706980;82;20936;-92
2023/01/05 10:34:53;;;;;;;0.53;0.30;;;;;;;7.31;91.16;99933.64;1744885;82;21023;-87
2023/01/05 10:37:46;;;;;;;0.97;0.40;;;;;;;7.33;91.17;99937.06;1744919;82;21052;-76
2023/01/05 10:40:41;;;;;;;0.77;0.27;;;;;;;7.35;91.17;99928.75;1726560;81;21035;-77
2023/01/05 10:43:33;;;;;;;1.33;0.40;;;;;;;7.39;90.96;99929.04;1707225;82;21152;-76
2023/01/05 10:46:02;;;;;;;0.70;0.30;;;;;;;7.44;91.14;99932.81;1744884;82;20967;-77
2023/01/05 10:48:34;;;;;;;1.27;0.53;;;;;;;7.63;91.06;99931.78;1723477;80;21095;-90
2023/01/05 10:51:04;;;;;;;1.70;0.67;;;;;;;7.94;90.97;99930.31;1733808;82;21109;-82
2023/01/05 10:53:36;;;;;;;1.17;0.65;;;;;;;7.98;90.87;99942.34;1720681;82;21075;-88
2023/01/05 10:56:14;;;;;;;1.10;0.60;;;;;;;7.92;90.76;99940.78;1744703;82;21160;-75
2023/01/05 10:58:44;;;;;;;2.23;0.63;;;;;;;7.86;90.61;99950.13;1722168;80;21032;-78
2023/01/05 11:01:29;;;;;;;2.10;0.77;;;;;;;7.96;90.60;99948.93;1738646;82;21518;-76
2023/01/05 11:04:22;;;;;;;1.27;0.57;;;;;;;8.03;90.59;99954.78;1718382;82;21023;-77
2023/01/05 11:06:50;;;;;;;3.30;1.60;;;;;;;8.20;90.66;99951.59;1718618;82;21079;-82
2023/01/05 11:09:23;;;;;;;2.40;1.40;;;;;;;8.60;90.61;99945.87;1723843;82;21119;-77
2023/01/05 11:12:04;;;;;;;13.50;5.60;;;;;;;8.78;90.38;99946.94;1711107;82;21095;-86
2023/01/05 11:14:39;;;;;;;2.05;0.80;;;;;;;8.98;90.27;99947.53;1731785;82;21067;-82
2023/01/05 11:17:11;;;;;;;2.47;1.22;;;;;;;9.24;90.04;99941.75;1744895;81;21095;-78
2023/01/05 11:19:45;;;;;;;2.87;1.30;;;;;;;9.28;89.85;99966.39;1745114;81;21024;-86
2023/01/05 11:22:32;;;;;;;1.62;0.80;;;;;;;9.26;89.84;99950.40;1741385;81;21126;-83
2023/01/05 11:25:23;;;;;;;1.32;0.78;;;;;;;9.20;89.72;99955.41;1740522;81;20997;-85
2023/01/05 11:28:14;;;;;;;0.95;0.50;;;;;;;9.25;89.70;99958.67;1737595;82;22056;-79
2023/01/05 11:31:02;;;;;;;1.17;0.90;;;;;;;9.34;89.98;99960.11;1706533;82;21558;-78
2023/01/05 11:33:33;;;;;;;3.12;1.30;;;;;;;9.63;89.96;99960.71;1718084;82;21500;-76
2023/01/05 11:36:03;;;;;;;3.42;1.62;;;;;;;9.69;89.64;99966.54;1712694;81;21133;-79
2023/01/05 11:38:31;;;;;;;4.60;2.62;;;;;;;9.75;89.71;99964.13;1710644;82;20980;-80
2023/01/05 11:41:00;;;;;;;3.17;1.77;;;;;;;9.70;89.62;99971.30;1731659;82;21009;-77
2023/01/05 11:43:31;;;;;;;2.35;1.10;;;;;;;9.67;89.53;99967.08;1714972;82;21012;-79
2023/01/05 11:46:03;;;;;;;2.58;0.90;;;;;;;9.97;89.35;99964.95;1735243;82;21068;-80
2023/01/05 11:48:34;;;;;;;4.40;3.10;;;;;;;10.08;88.84;99963.66;1678363;84;21151;-90
2023/01/05 11:51:01;;;;;;;3.45;1.55;;;;;;;10.19;88.80;99978.45;1699083;84;21310;-80
2023/01/05 11:53:39;;;;;;;2.65;1.20;;;;;;;10.19;88.74;99966.67;1650806;84;21063;-77
2023/01/05 11:56:22;;;;;;;3.35;1.92;;;;;;;10.14;88.51;99965.58;1656413;84;21078;-79
2023/01/05 11:58:54;;;;;;;9.75;4.12;;;;;;;10.04;88.23;99970.34;1682253;84;21062;-78
2023/01/05 12:01:45;;;;;;;5.03;2.50;;;;;;;10.16;88.31;99964.19;1690515;84;21122;-76
2023/01/05 12:04:46;;;;;;;6.87;2.95;;;;;;;10.37;87.93;99968.55;1676642;84;21085;-77
2023/01/05 12:07:25;;;;;;;3.70;1.70;;;;;;;10.38;87.82;99965.00;1661341;84;21053;-79
2023/01/05 12:10:18;;;;;;;2.45;0.93;;;;;;;10.31;87.64;99966.20;1669518;84;21103;-85
2023/01/05 12:13:07;;;;;;;2.83;1.10;;;;;;;10.33;87.83;99968.27;1657371;84;21031;-82
2023/01/05 12:15:40;;;;;;;4.42;1.90;;;;;;;10.53;87.39;99977.92;1655566;84;22059;-77
2023/01/05 12:18:28;;;;;;;4.28;1.17;;;;;;;10.60;87.07;99971.47;1656596;84;21089;-77
2023/01/05 12:21:24;;;;;;;6.85;2.90;;;;;;;10.85;86.45;99964.68;1674044;84;21071;-82
2023/01/05 12:24:23;;;;;;;3.72;1.50;;;;;;;11.07;86.04;99957.16;1685767;84;21605;-76
2023/01/05 12:26:58;;;;;;;3.17;1.10;;;;;;;11.34;85.86;99965.05;1678737;84;21563;-90
2023/01/05 12:29:52;;;;;;;2.80;0.88;;;;;;;11.58;84.15;99963.05;1665491;84;21518;-87
2023/01/05 12:32:39;;;;;;;3.42;1.25;;;;;;;11.67;82.86;99943.83;1678022;84;21036;-81
2023/01/05 12:35:47;;;;;;;1.65;0.70;;;;;;;11.81;81.66;99959.28;1693697;84;21048;-81
2023/01/05 12:38:49;;;;;;;3.90;1.20;;;;;;;11.71;80.49;99948.84;1693748;84;21051;-81
2023/01/05 12:41:52;;;;;;;1.70;0.62;;;;;;;11.70;79.76;99958.13;1693903;84;21040;-77
2023/01/05 12:44:51;;;;;;;2.85;1.00;;;;;;;11.63;78.96;99944.89;1653951;84;22181;-83